sensor_id;sensor_type;location;lat;lon;timestamp;pressure;altitude;pressure_sealevel;temperature;humidity
47913;BME280;33676;51.006;17.180;2023-04-06T00:00:06;100731.13;;;-1.04;82.81
47913;BME280;33676;51.006;17.180;2023-04-06T00:02:56;100734.98;;;-1.07;82.76
47913;BME280;33676;51.006;17.180;2023-04-06T00:05:25;100733.50;;;-1.09;82.85
47913;BME280;33676;51.006;17.180;2023-04-06T00:07:54;100732.01;;;-1.12;82.67
47913;BME280;33676;51.006;17.180;2023-04-06T00:10:24;100731.59;;;-1.16;82.59
47913;BME280;33676;51.006;17.180;2023-04-06T00:12:53;100733.52;;;-1.18;82.66
47913;BME280;33676;51.006;17.180;2023-04-06T00:15:21;100732.20;;;-1.20;82.75
47913;BME280;33676;51.006;17.180;2023-04-06T00:17:50;100732.27;;;-1.24;82.94
47913;BME280;33676;51.006;17.180;2023-04-06T00:20:19;100731.17;;;-1.28;83.05
47913;BME280;33676;51.006;17.180;2023-04-06T00:22:47;100729.02;;;-1.32;83.02
47913;BME280;33676;51.006;17.180;2023-04-06T00:25:16;100731.11;;;-1.34;83.21
47913;BME280;33676;51.006;17.180;2023-04-06T00:27:44;100728.95;;;-1.37;83.14
47913;BME280;33676;51.006;17.180;2023-04-06T00:30:13;100732.42;;;-1.39;83.22
47913;BME280;33676;51.006;17.180;2023-04-06T00:32:41;100728.00;;;-1.41;83.57
47913;BME280;33676;51.006;17.180;2023-04-06T00:35:10;100725.26;;;-1.41;83.69
47913;BME280;33676;51.006;17.180;2023-04-06T00:37:39;100723.59;;;-1.43;83.70
47913;BME280;33676;51.006;17.180;2023-04-06T00:40:08;100725.52;;;-1.45;83.55
47913;BME280;33676;51.006;17.180;2023-04-06T00:42:36;100726.59;;;-1.47;83.91
47913;BME280;33676;51.006;17.180;2023-04-06T00:45:05;100721.31;;;-1.48;83.88
47913;BME280;33676;51.006;17.180;2023-04-06T00:47:34;100720.66;;;-1.50;83.95
47913;BME280;33676;51.006;17.180;2023-04-06T00:50:03;100722.08;;;-1.52;83.94
47913;BME280;33676;51.006;17.180;2023-04-06T00:52:31;100720.27;;;-1.55;83.92
47913;BME280;33676;51.006;17.180;2023-04-06T00:55:00;100719.17;;;-1.59;83.84
47913;BME280;33676;51.006;17.180;2023-04-06T00:57:28;100713.59;;;-1.63;83.83
47913;BME280;33676;51.006;17.180;2023-04-06T00:59:57;100717.09;;;-1.66;83.89
47913;BME280;33676;51.006;17.180;2023-04-06T01:02:25;100722.27;;;-1.68;83.98
47913;BME280;33676;51.006;17.180;2023-04-06T01:04:54;100718.02;;;-1.70;84.14
47913;BME280;33676;51.006;17.180;2023-04-06T01:07:23;100717.36;;;-1.71;84.12
47913;BME280;33676;51.006;17.180;2023-04-06T01:09:54;100716.51;;;-1.71;84.46
47913;BME280;33676;51.006;17.180;2023-04-06T01:12:22;100717.68;;;-1.70;84.78
47913;BME280;33676;51.006;17.180;2023-04-06T01:14:51;100718.38;;;-1.70;84.72
47913;BME280;33676;51.006;17.180;2023-04-06T01:17:19;100714.80;;;-1.71;84.60
47913;BME280;33676;51.006;17.180;2023-04-06T01:19:48;100714.80;;;-1.72;84.79
47913;BME280;33676;51.006;17.180;2023-04-06T01:22:23;100716.17;;;-1.72;84.82
47913;BME280;33676;51.006;17.180;2023-04-06T01:24:52;100713.79;;;-1.73;85.04
47913;BME280;33676;51.006;17.180;2023-04-06T01:27:20;100712.45;;;-1.74;85.05
47913;BME280;33676;51.006;17.180;2023-04-06T01:29:48;100713.17;;;-1.76;85.10
47913;BME280;33676;51.006;17.180;2023-04-06T01:32:17;100713.02;;;-1.77;85.26
47913;BME280;33676;51.006;17.180;2023-04-06T01:34:46;100711.47;;;-1.77;85.54
47913;BME280;33676;51.006;17.180;2023-04-06T01:37:14;100711.45;;;-1.75;85.59
47913;BME280;33676;51.006;17.180;2023-04-06T01:39:44;100714.36;;;-1.75;85.60
47913;BME280;33676;51.006;17.180;2023-04-06T01:42:13;100716.92;;;-1.75;85.76
47913;BME280;33676;51.006;17.180;2023-04-06T01:44:41;100714.52;;;-1.75;85.71
47913;BME280;33676;51.006;17.180;2023-04-06T01:47:10;100709.39;;;-1.75;85.68
47913;BME280;33676;51.006;17.180;2023-04-06T01:49:38;100709.89;;;-1.74;85.81
47913;BME280;33676;51.006;17.180;2023-04-06T01:52:07;100709.39;;;-1.75;85.77
47913;BME280;33676;51.006;17.180;2023-04-06T01:54:35;100705.96;;;-1.76;86.03
47913;BME280;33676;51.006;17.180;2023-04-06T01:57:04;100707.20;;;-1.77;86.10
47913;BME280;33676;51.006;17.180;2023-04-06T01:59:32;100709.10;;;-1.78;86.07
47913;BME280;33676;51.006;17.180;2023-04-06T02:02:01;100705.00;;;-1.78;86.04
47913;BME280;33676;51.006;17.180;2023-04-06T02:04:29;100708.10;;;-1.79;85.97
47913;BME280;33676;51.006;17.180;2023-04-06T02:06:58;100709.33;;;-1.81;85.63
47913;BME280;33676;51.006;17.180;2023-04-06T02:09:27;100706.77;;;-1.81;85.88
47913;BME280;33676;51.006;17.180;2023-04-06T02:11:55;100704.21;;;-1.82;86.06
47913;BME280;33676;51.006;17.180;2023-04-06T02:14:25;100704.89;;;-1.82;86.11
47913;BME280;33676;51.006;17.180;2023-04-06T02:16:54;100705.41;;;-1.81;86.31
47913;BME280;33676;51.006;17.180;2023-04-06T02:19:23;100706.44;;;-1.82;86.11
47913;BME280;33676;51.006;17.180;2023-04-06T02:21:51;100706.13;;;-1.83;86.11
47913;BME280;33676;51.006;17.180;2023-04-06T02:24:20;100706.14;;;-1.84;86.18
47913;BME280;33676;51.006;17.180;2023-04-06T02:26:48;100709.07;;;-1.85;86.12
47913;BME280;33676;51.006;17.180;2023-04-06T02:29:17;100711.33;;;-1.87;85.97
47913;BME280;33676;51.006;17.180;2023-04-06T02:31:45;100708.65;;;-1.89;85.76
47913;BME280;33676;51.006;17.180;2023-04-06T02:34:13;100711.61;;;-1.92;85.61
47913;BME280;33676;51.006;17.180;2023-04-06T02:36:46;100715.08;;;-1.94;85.57
47913;BME280;33676;51.006;17.180;2023-04-06T02:39:15;100716.67;;;-1.97;85.50
47913;BME280;33676;51.006;17.180;2023-04-06T02:41:43;100714.70;;;-2.01;85.40
47913;BME280;33676;51.006;17.180;2023-04-06T02:44:12;100713.36;;;-2.03;85.35
47913;BME280;33676;51.006;17.180;2023-04-06T02:46:41;100712.88;;;-2.05;85.40
47913;BME280;33676;51.006;17.180;2023-04-06T02:49:09;100716.15;;;-2.06;85.43
47913;BME280;33676;51.006;17.180;2023-04-06T02:51:37;100723.36;;;-2.07;85.59
47913;BME280;33676;51.006;17.180;2023-04-06T02:54:06;100722.02;;;-2.08;85.65
47913;BME280;33676;51.006;17.180;2023-04-06T02:56:34;100725.94;;;-2.07;85.75
47913;BME280;33676;51.006;17.180;2023-04-06T02:59:03;100725.42;;;-2.07;85.74
47913;BME280;33676;51.006;17.180;2023-04-06T03:29:28;100737.67;;;-0.98;86.26
47913;BME280;33676;51.006;17.180;2023-04-06T03:54:29;100747.14;;;-0.99;85.52
47913;BME280;33676;51.006;17.180;2023-04-06T03:57:01;100749.39;;;-1.07;85.26
47913;BME280;33676;51.006;17.180;2023-04-06T03:59:30;100755.78;;;-1.16;85.27
47913;BME280;33676;51.006;17.180;2023-04-06T04:19:08;100763.99;;;-1.24;85.17
47913;BME280;33676;51.006;17.180;2023-04-06T04:21:58;100760.31;;;-1.28;85.33
47913;BME280;33676;51.006;17.180;2023-04-06T04:31:20;100754.48;;;-1.59;85.49
47913;BME280;33676;51.006;17.180;2023-04-06T04:37:09;100755.27;;;-1.65;85.89
47913;BME280;33676;51.006;17.180;2023-04-06T04:39:37;100754.73;;;-1.64;85.95
47913;BME280;33676;51.006;17.180;2023-04-06T04:45:43;100756.05;;;-1.61;86.68
47913;BME280;33676;51.006;17.180;2023-04-06T05:07:47;100763.59;;;-0.49;86.38
47913;BME280;33676;51.006;17.180;2023-04-06T05:59:46;100779.94;;;1.57;83.42
47913;BME280;33676;51.006;17.180;2023-04-06T06:02:20;100781.52;;;1.61;82.96
47913;BME280;33676;51.006;17.180;2023-04-06T06:04:51;100784.08;;;1.57;82.77
47913;BME280;33676;51.006;17.180;2023-04-06T06:07:24;100783.11;;;1.56;82.78
47913;BME280;33676;51.006;17.180;2023-04-06T06:09:57;100785.06;;;1.54;83.08
47913;BME280;33676;51.006;17.180;2023-04-06T06:22:15;100787.75;;;1.46;84.04
47913;BME280;33676;51.006;17.180;2023-04-06T06:24:45;100785.59;;;1.48;83.87
47913;BME280;33676;51.006;17.180;2023-04-06T06:27:14;100778.80;;;1.55;84.01
47913;BME280;33676;51.006;17.180;2023-04-06T06:29:42;100776.02;;;1.61;83.95
47913;BME280;33676;51.006;17.180;2023-04-06T06:32:11;100778.97;;;1.66;83.97
47913;BME280;33676;51.006;17.180;2023-04-06T06:34:40;100779.96;;;1.67;84.06
47913;BME280;33676;51.006;17.180;2023-04-06T06:37:09;100779.56;;;1.69;84.37
47913;BME280;33676;51.006;17.180;2023-04-06T06:39:37;100779.88;;;1.69;84.26
47913;BME280;33676;51.006;17.180;2023-04-06T06:42:06;100776.55;;;1.71;84.52
47913;BME280;33676;51.006;17.180;2023-04-06T06:44:34;100772.20;;;1.72;84.91
47913;BME280;33676;51.006;17.180;2023-04-06T06:47:03;100772.42;;;1.76;84.86
47913;BME280;33676;51.006;17.180;2023-04-06T06:49:31;100768.23;;;1.83;84.99
47913;BME280;33676;51.006;17.180;2023-04-06T06:51:59;100764.43;;;1.88;84.74
47913;BME280;33676;51.006;17.180;2023-04-06T06:54:28;100767.76;;;1.86;84.24
47913;BME280;33676;51.006;17.180;2023-04-06T06:56:56;100766.31;;;1.93;84.86
47913;BME280;33676;51.006;17.180;2023-04-06T06:59:25;100771.69;;;2.03;85.11
47913;BME280;33676;51.006;17.180;2023-04-06T07:01:58;100769.15;;;2.11;85.60
47913;BME280;33676;51.006;17.180;2023-04-06T07:04:32;100767.14;;;2.19;85.78
47913;BME280;33676;51.006;17.180;2023-04-06T07:07:06;100769.16;;;2.24;85.92
47913;BME280;33676;51.006;17.180;2023-04-06T07:09:35;100770.88;;;2.29;86.11
47913;BME280;33676;51.006;17.180;2023-04-06T07:12:04;100771.21;;;2.40;86.21
47913;BME280;33676;51.006;17.180;2023-04-06T07:14:32;100776.45;;;2.52;86.31
47913;BME280;33676;51.006;17.180;2023-04-06T07:17:01;100779.23;;;2.64;86.45
47913;BME280;33676;51.006;17.180;2023-04-06T07:19:30;100778.14;;;2.76;86.71
47913;BME280;33676;51.006;17.180;2023-04-06T07:21:59;100786.82;;;2.83;86.85
47913;BME280;33676;51.006;17.180;2023-04-06T07:24:30;100785.91;;;2.89;86.73
47913;BME280;33676;51.006;17.180;2023-04-06T07:27:46;100786.02;;;3.00;86.83
47913;BME280;33676;51.006;17.180;2023-04-06T07:30:16;100785.46;;;3.10;86.98
47913;BME280;33676;51.006;17.180;2023-04-06T07:32:46;100787.10;;;3.20;87.07
47913;BME280;33676;51.006;17.180;2023-04-06T07:35:15;100788.73;;;3.31;86.97
47913;BME280;33676;51.006;17.180;2023-04-06T07:37:54;100789.70;;;3.46;87.27
47913;BME280;33676;51.006;17.180;2023-04-06T07:40:25;100792.42;;;3.60;87.39
47913;BME280;33676;51.006;17.180;2023-04-06T07:42:54;100788.61;;;3.68;86.84
47913;BME280;33676;51.006;17.180;2023-04-06T07:45:25;100789.45;;;3.77;86.73
47913;BME280;33676;51.006;17.180;2023-04-06T07:48:02;100792.11;;;3.87;86.64
47913;BME280;33676;51.006;17.180;2023-04-06T07:50:31;100791.18;;;3.97;86.60
47913;BME280;33676;51.006;17.180;2023-04-06T07:52:59;100789.90;;;4.07;86.62
47913;BME280;33676;51.006;17.180;2023-04-06T07:55:29;100790.74;;;4.16;86.13
47913;BME280;33676;51.006;17.180;2023-04-06T07:58:15;100787.91;;;4.24;85.89
47913;BME280;33676;51.006;17.180;2023-04-06T08:00:46;100784.80;;;4.36;85.83
47913;BME280;33676;51.006;17.180;2023-04-06T08:03:14;100784.19;;;4.50;85.54
47913;BME280;33676;51.006;17.180;2023-04-06T08:05:43;100786.89;;;4.67;85.34
47913;BME280;33676;51.006;17.180;2023-04-06T08:08:12;100786.14;;;4.83;85.15
47913;BME280;33676;51.006;17.180;2023-04-06T08:10:41;100784.96;;;4.97;84.84
47913;BME280;33676;51.006;17.180;2023-04-06T08:13:09;100788.31;;;5.11;84.35
47913;BME280;33676;51.006;17.180;2023-04-06T08:15:38;100784.11;;;5.25;84.33
47913;BME280;33676;51.006;17.180;2023-04-06T08:18:08;100785.69;;;5.40;83.89
47913;BME280;33676;51.006;17.180;2023-04-06T08:20:39;100785.33;;;5.51;83.70
47913;BME280;33676;51.006;17.180;2023-04-06T08:23:07;100784.95;;;5.62;83.35
47913;BME280;33676;51.006;17.180;2023-04-06T08:25:39;100780.20;;;5.74;83.02
47913;BME280;33676;51.006;17.180;2023-04-06T08:28:14;100778.95;;;5.85;82.21
47913;BME280;33676;51.006;17.180;2023-04-06T08:30:42;100776.15;;;5.95;81.74
47913;BME280;33676;51.006;17.180;2023-04-06T08:33:14;100778.36;;;6.04;80.77
47913;BME280;33676;51.006;17.180;2023-04-06T08:35:43;100775.60;;;6.14;80.86
47913;BME280;33676;51.006;17.180;2023-04-06T08:38:12;100772.70;;;6.25;80.20
47913;BME280;33676;51.006;17.180;2023-04-06T08:40:40;100777.79;;;6.38;79.70
47913;BME280;33676;51.006;17.180;2023-04-06T08:43:14;100775.50;;;6.48;79.50
47913;BME280;33676;51.006;17.180;2023-04-06T08:45:42;100774.49;;;6.60;78.99
47913;BME280;33676;51.006;17.180;2023-04-06T08:48:12;100775.34;;;6.74;78.61
47913;BME280;33676;51.006;17.180;2023-04-06T08:50:40;100773.25;;;6.86;78.00
47913;BME280;33676;51.006;17.180;2023-04-06T08:53:11;100774.88;;;7.01;77.65
47913;BME280;33676;51.006;17.180;2023-04-06T08:55:43;100778.16;;;7.14;77.45
47913;BME280;33676;51.006;17.180;2023-04-06T09:03:08;100775.28;;;7.61;76.69
47913;BME280;33676;51.006;17.180;2023-04-06T09:05:38;100767.31;;;7.81;76.60
47913;BME280;33676;51.006;17.180;2023-04-06T09:08:07;100772.95;;;8.04;76.41
47913;BME280;33676;51.006;17.180;2023-04-06T09:10:59;100770.96;;;8.22;76.13
47913;BME280;33676;51.006;17.180;2023-04-06T09:13:31;100769.20;;;8.45;75.85
47913;BME280;33676;51.006;17.180;2023-04-06T09:16:05;100766.39;;;8.65;75.47
47913;BME280;33676;51.006;17.180;2023-04-06T09:18:35;100763.83;;;8.87;75.39
47913;BME280;33676;51.006;17.180;2023-04-06T09:21:06;100764.94;;;9.08;74.87
47913;BME280;33676;51.006;17.180;2023-04-06T09:23:35;100759.41;;;9.23;73.98
47913;BME280;33676;51.006;17.180;2023-04-06T09:26:15;100756.96;;;9.34;73.30
47913;BME280;33676;51.006;17.180;2023-04-06T09:28:54;100755.98;;;9.49;72.91
47913;BME280;33676;51.006;17.180;2023-04-06T09:31:30;100758.10;;;9.61;72.46
47913;BME280;33676;51.006;17.180;2023-04-06T09:34:07;100755.52;;;9.79;71.96
47913;BME280;33676;51.006;17.180;2023-04-06T09:36:37;100752.21;;;9.97;71.64
47913;BME280;33676;51.006;17.180;2023-04-06T09:39:10;100746.64;;;10.17;70.83
47913;BME280;33676;51.006;17.180;2023-04-06T09:41:38;100748.64;;;10.34;70.36
47913;BME280;33676;51.006;17.180;2023-04-06T09:44:09;100744.84;;;10.58;70.59
47913;BME280;33676;51.006;17.180;2023-04-06T09:46:42;100742.05;;;10.77;69.29
47913;BME280;33676;51.006;17.180;2023-04-06T09:49:31;100745.63;;;10.96;69.06
47913;BME280;33676;51.006;17.180;2023-04-06T09:52:03;100744.15;;;11.01;67.96
47913;BME280;33676;51.006;17.180;2023-04-06T09:54:34;100744.61;;;11.07;68.31
47913;BME280;33676;51.006;17.180;2023-04-06T10:00:08;100749.79;;;11.13;66.34
47913;BME280;33676;51.006;17.180;2023-04-06T10:02:50;100745.21;;;10.99;65.82
47913;BME280;33676;51.006;17.180;2023-04-06T10:05:36;100743.36;;;11.07;66.32
47913;BME280;33676;51.006;17.180;2023-04-06T10:08:09;100745.13;;;11.45;66.63
47913;BME280;33676;51.006;17.180;2023-04-06T10:10:38;100741.79;;;11.87;66.92
47913;BME280;33676;51.006;17.180;2023-04-06T10:13:10;100740.27;;;12.12;66.32
47913;BME280;33676;51.006;17.180;2023-04-06T10:15:39;100739.10;;;12.15;65.42
47913;BME280;33676;51.006;17.180;2023-04-06T10:18:11;100738.69;;;12.01;64.81
47913;BME280;33676;51.006;17.180;2023-04-06T10:23:35;100736.84;;;11.74;63.72
47913;BME280;33676;51.006;17.180;2023-04-06T10:26:04;100736.02;;;11.78;63.98
47913;BME280;33676;51.006;17.180;2023-04-06T10:28:36;100731.81;;;11.96;64.10
47913;BME280;33676;51.006;17.180;2023-04-06T10:31:06;100730.01;;;12.33;63.75
47913;BME280;33676;51.006;17.180;2023-04-06T10:33:35;100728.46;;;12.64;63.93
47913;BME280;33676;51.006;17.180;2023-04-06T10:36:15;100722.25;;;13.06;64.46
47913;BME280;33676;51.006;17.180;2023-04-06T10:38:56;100721.27;;;13.52;63.92
47913;BME280;33676;51.006;17.180;2023-04-06T10:41:40;100722.91;;;13.86;63.31
47913;BME280;33676;51.006;17.180;2023-04-06T10:44:21;100717.28;;;14.03;62.88
47913;BME280;33676;51.006;17.180;2023-04-06T10:46:58;100715.48;;;14.07;62.63
47913;BME280;33676;51.006;17.180;2023-04-06T10:49:28;100714.84;;;14.01;61.65
47913;BME280;33676;51.006;17.180;2023-04-06T10:51:57;100712.02;;;13.80;60.91
47913;BME280;33676;51.006;17.180;2023-04-06T10:54:26;100709.32;;;13.83;60.52
47913;BME280;33676;51.006;17.180;2023-04-06T10:56:55;100706.90;;;14.21;61.13
47913;BME280;33676;51.006;17.180;2023-04-06T10:59:24;100704.65;;;14.61;61.02
47913;BME280;33676;51.006;17.180;2023-04-06T11:01:53;100699.30;;;15.13;61.52
47913;BME280;33676;51.006;17.180;2023-04-06T11:04:31;100700.67;;;15.78;61.83
47913;BME280;33676;51.006;17.180;2023-04-06T11:07:00;100696.32;;;16.32;61.66
47913;BME280;33676;51.006;17.180;2023-04-06T11:09:29;100690.36;;;16.77;60.80
47913;BME280;33676;51.006;17.180;2023-04-06T11:11:59;100691.15;;;17.10;60.16
47913;BME280;33676;51.006;17.180;2023-04-06T11:14:28;100691.80;;;17.25;58.55
47913;BME280;33676;51.006;17.180;2023-04-06T11:16:57;100686.50;;;17.22;57.64
47913;BME280;33676;51.006;17.180;2023-04-06T11:19:26;100690.21;;;16.90;55.57
47913;BME280;33676;51.006;17.180;2023-04-06T11:21:54;100682.55;;;16.62;55.12
47913;BME280;33676;51.006;17.180;2023-04-06T11:24:26;100680.95;;;16.58;55.18
47913;BME280;33676;51.006;17.180;2023-04-06T11:26:57;100680.30;;;16.55;55.86
47913;BME280;33676;51.006;17.180;2023-04-06T11:29:30;100679.14;;;16.58;56.33
47913;BME280;33676;51.006;17.180;2023-04-06T11:32:04;100677.58;;;16.72;56.08
47913;BME280;33676;51.006;17.180;2023-04-06T11:34:39;100673.63;;;16.62;55.14
47913;BME280;33676;51.006;17.180;2023-04-06T11:37:11;100674.94;;;16.61;55.70
47913;BME280;33676;51.006;17.180;2023-04-06T11:39:52;100670.86;;;16.87;55.10
47913;BME280;33676;51.006;17.180;2023-04-06T11:42:24;100668.57;;;17.12;55.21
47913;BME280;33676;51.006;17.180;2023-04-06T11:44:56;100666.48;;;17.47;55.74
47913;BME280;33676;51.006;17.180;2023-04-06T11:47:34;100661.73;;;17.90;55.90
47913;BME280;33676;51.006;17.180;2023-04-06T11:50:12;100663.09;;;18.13;55.34
47913;BME280;33676;51.006;17.180;2023-04-06T11:52:41;100659.55;;;17.97;54.67
47913;BME280;33676;51.006;17.180;2023-04-06T11:55:18;100660.08;;;18.18;54.51
47913;BME280;33676;51.006;17.180;2023-04-06T11:57:47;100653.72;;;18.56;54.62
47913;BME280;33676;51.006;17.180;2023-04-06T12:00:16;100650.98;;;18.90;54.59
47913;BME280;33676;51.006;17.180;2023-04-06T12:02:47;100646.25;;;19.14;54.50
47913;BME280;33676;51.006;17.180;2023-04-06T12:05:16;100644.95;;;19.08;53.73
47913;BME280;33676;51.006;17.180;2023-04-06T12:07:45;100644.69;;;18.73;52.67
47913;BME280;33676;51.006;17.180;2023-04-06T12:10:14;100642.75;;;18.73;52.79
47913;BME280;33676;51.006;17.180;2023-04-06T12:12:42;100634.85;;;19.00;53.09
47913;BME280;33676;51.006;17.180;2023-04-06T12:15:11;100630.90;;;19.17;52.48
47913;BME280;33676;51.006;17.180;2023-04-06T12:17:40;100628.85;;;19.34;52.66
47913;BME280;33676;51.006;17.180;2023-04-06T12:20:09;100628.83;;;19.66;52.84
47913;BME280;33676;51.006;17.180;2023-04-06T12:22:53;100624.98;;;20.04;52.74
47913;BME280;33676;51.006;17.180;2023-04-06T12:25:21;100623.58;;;20.16;52.28
47913;BME280;33676;51.006;17.180;2023-04-06T12:27:50;100625.48;;;20.21;51.62
47913;BME280;33676;51.006;17.180;2023-04-06T12:30:19;100618.45;;;20.02;50.77
47913;BME280;33676;51.006;17.180;2023-04-06T12:32:47;100613.06;;;20.07;50.98
47913;BME280;33676;51.006;17.180;2023-04-06T12:35:18;100605.52;;;20.18;50.75
47913;BME280;33676;51.006;17.180;2023-04-06T12:37:47;100602.88;;;20.39;50.85
47913;BME280;33676;51.006;17.180;2023-04-06T12:40:15;100596.86;;;20.61;50.71
47913;BME280;33676;51.006;17.180;2023-04-06T12:42:44;100595.27;;;20.70;50.23
47913;BME280;33676;51.006;17.180;2023-04-06T12:45:15;100588.33;;;20.82;50.09
47913;BME280;33676;51.006;17.180;2023-04-06T12:47:44;100588.14;;;20.97;49.74
47913;BME280;33676;51.006;17.180;2023-04-06T12:50:12;100586.44;;;20.98;49.08
47913;BME280;33676;51.006;17.180;2023-04-06T12:52:40;100590.44;;;20.82;48.38
47913;BME280;33676;51.006;17.180;2023-04-06T12:55:09;100587.45;;;20.66;47.09
47913;BME280;33676;51.006;17.180;2023-04-06T12:58:59;100582.58;;;20.49;47.58
47913;BME280;33676;51.006;17.180;2023-04-06T13:01:28;100583.20;;;20.34;46.93
47913;BME280;33676;51.006;17.180;2023-04-06T13:03:57;100578.20;;;20.12;46.36
47913;BME280;33676;51.006;17.180;2023-04-06T13:06:27;100572.11;;;19.90;46.40
47913;BME280;33676;51.006;17.180;2023-04-06T13:08:56;100567.12;;;19.88;47.21
47913;BME280;33676;51.006;17.180;2023-04-06T13:11:25;100566.27;;;20.04;47.67
47913;BME280;33676;51.006;17.180;2023-04-06T13:13:57;100567.22;;;20.05;46.94
47913;BME280;33676;51.006;17.180;2023-04-06T13:16:25;100563.67;;;20.09;47.51
47913;BME280;33676;51.006;17.180;2023-04-06T13:24:52;100551.25;;;20.93;47.55
47913;BME280;33676;51.006;17.180;2023-04-06T13:27:20;100545.73;;;21.27;47.80
47913;BME280;33676;51.006;17.180;2023-04-06T13:29:49;100549.23;;;21.68;47.61
47913;BME280;33676;51.006;17.180;2023-04-06T13:32:17;100547.09;;;22.11;47.85
47913;BME280;33676;51.006;17.180;2023-04-06T13:34:46;100550.77;;;22.47;47.12
47913;BME280;33676;51.006;17.180;2023-04-06T13:37:18;100547.50;;;22.33;45.28
47913;BME280;33676;51.006;17.180;2023-04-06T13:39:46;100546.53;;;22.12;45.64
47913;BME280;33676;51.006;17.180;2023-04-06T13:42:15;100546.80;;;22.02;45.19
47913;BME280;33676;51.006;17.180;2023-04-06T13:44:43;100543.20;;;21.74;44.92
47913;BME280;33676;51.006;17.180;2023-04-06T13:47:12;100542.74;;;21.62;45.44
47913;BME280;33676;51.006;17.180;2023-04-06T13:49:43;100542.62;;;21.67;45.86
47913;BME280;33676;51.006;17.180;2023-04-06T13:52:13;100537.41;;;21.81;45.70
47913;BME280;33676;51.006;17.180;2023-04-06T13:54:41;100536.74;;;21.96;45.94
47913;BME280;33676;51.006;17.180;2023-04-06T13:57:10;100536.83;;;22.15;45.93
47913;BME280;33676;51.006;17.180;2023-04-06T13:59:39;100539.65;;;22.33;45.90
47913;BME280;33676;51.006;17.180;2023-04-06T14:02:10;100528.88;;;22.51;46.01
47913;BME280;33676;51.006;17.180;2023-04-06T14:04:39;100530.50;;;22.68;45.07
47913;BME280;33676;51.006;17.180;2023-04-06T14:07:07;100528.21;;;22.58;44.25
47913;BME280;33676;51.006;17.180;2023-04-06T14:09:36;100521.91;;;22.53;44.61
47913;BME280;33676;51.006;17.180;2023-04-06T14:12:04;100525.93;;;22.65;44.35
47913;BME280;33676;51.006;17.180;2023-04-06T14:14:33;100521.14;;;22.67;44.30
47913;BME280;33676;51.006;17.180;2023-04-06T14:17:02;100521.27;;;22.68;43.46
47913;BME280;33676;51.006;17.180;2023-04-06T14:19:30;100520.45;;;22.63;43.16
47913;BME280;33676;51.006;17.180;2023-04-06T14:22:00;100516.77;;;22.53;42.43
47913;BME280;33676;51.006;17.180;2023-04-06T14:24:28;100515.10;;;22.24;41.42
47913;BME280;33676;51.006;17.180;2023-04-06T14:26:59;100516.05;;;21.95;42.10
47913;BME280;33676;51.006;17.180;2023-04-06T14:29:29;100513.31;;;21.93;43.02
47913;BME280;33676;51.006;17.180;2023-04-06T14:31:58;100517.96;;;21.94;42.11
47913;BME280;33676;51.006;17.180;2023-04-06T14:34:29;100516.33;;;21.76;42.14
47913;BME280;33676;51.006;17.180;2023-04-06T14:36:57;100512.23;;;21.70;41.91
47913;BME280;33676;51.006;17.180;2023-04-06T14:39:26;100516.95;;;21.51;41.82
47913;BME280;33676;51.006;17.180;2023-04-06T14:41:54;100513.98;;;21.45;42.45
47913;BME280;33676;51.006;17.180;2023-04-06T14:44:22;100511.85;;;21.45;41.59
47913;BME280;33676;51.006;17.180;2023-04-06T14:46:51;100512.02;;;21.15;41.09
47913;BME280;33676;51.006;17.180;2023-04-06T14:49:20;100516.63;;;20.93;41.53
47913;BME280;33676;51.006;17.180;2023-04-06T14:51:48;100511.95;;;20.95;41.52
47913;BME280;33676;51.006;17.180;2023-04-06T14:54:16;100506.25;;;20.98;41.80
47913;BME280;33676;51.006;17.180;2023-04-06T14:56:45;100506.00;;;21.00;41.87
47913;BME280;33676;51.006;17.180;2023-04-06T14:59:13;100508.80;;;21.08;41.73
47913;BME280;33676;51.006;17.180;2023-04-06T15:01:42;100507.24;;;21.18;42.25
47913;BME280;33676;51.006;17.180;2023-04-06T15:04:10;100507.58;;;21.33;42.50
47913;BME280;33676;51.006;17.180;2023-04-06T15:06:39;100506.27;;;21.42;42.46
47913;BME280;33676;51.006;17.180;2023-04-06T15:09:08;100505.38;;;21.63;42.71
47913;BME280;33676;51.006;17.180;2023-04-06T15:11:36;100507.30;;;21.85;42.41
47913;BME280;33676;51.006;17.180;2023-04-06T15:14:05;100503.89;;;21.84;41.98
47913;BME280;33676;51.006;17.180;2023-04-06T15:16:34;100495.71;;;21.75;42.31
47913;BME280;33676;51.006;17.180;2023-04-06T15:19:03;100495.30;;;21.54;42.24
47913;BME280;33676;51.006;17.180;2023-04-06T15:21:31;100495.73;;;20.97;41.82
47913;BME280;33676;51.006;17.180;2023-04-06T15:24:00;100499.27;;;20.32;41.57
47913;BME280;33676;51.006;17.180;2023-04-06T15:26:28;100499.34;;;19.60;40.78
47913;BME280;33676;51.006;17.180;2023-04-06T15:28:57;100497.72;;;18.86;41.42
47913;BME280;33676;51.006;17.180;2023-04-06T15:31:26;100494.73;;;18.35;42.29
47913;BME280;33676;51.006;17.180;2023-04-06T15:34:07;100496.86;;;18.02;42.49
47913;BME280;33676;51.006;17.180;2023-04-06T15:36:38;100493.59;;;17.86;42.92
47913;BME280;33676;51.006;17.180;2023-04-06T15:39:06;100492.33;;;17.84;43.12
47913;BME280;33676;51.006;17.180;2023-04-06T15:41:37;100494.33;;;17.82;43.26
47913;BME280;33676;51.006;17.180;2023-04-06T15:44:06;100486.35;;;17.71;43.26
47913;BME280;33676;51.006;17.180;2023-04-06T15:46:34;100487.97;;;17.64;43.52
47913;BME280;33676;51.006;17.180;2023-04-06T15:49:03;100485.73;;;17.61;43.70
47913;BME280;33676;51.006;17.180;2023-04-06T15:51:38;100488.77;;;17.53;43.35
47913;BME280;33676;51.006;17.180;2023-04-06T15:54:07;100485.42;;;17.28;43.56
47913;BME280;33676;51.006;17.180;2023-04-06T15:56:36;100486.55;;;17.13;43.53